Time;durP1;ratioP1;P1;durP2;ratioP2;P2;SDS_P1;SDS_P2;PMS_P1;PMS_P2;Temp;Humidity;BMP_temperature;BMP_pressure;BME280_temperature;BME280_humidity;BME280_pressure;Samples;Min_cycle;Max_cycle;Signal;HPM_P1;HPM_P2
2022/10/06 00:02:02;;;;;;;17.20;2.72;;;;;;;;;;4978327;28;20042;-65
2022/10/06 00:04:28;;;;;;;16.88;3.30;;;;;;;;;;4977595;28;20192;-65
2022/10/06 00:06:54;;;;;;;13.52;2.50;;;;;;;;;;4978614;28;20077;-65
2022/10/06 00:09:21;;;;;;;16.17;2.45;;;;;;;;;;4973194;28;20066;-65
2022/10/06 00:11:47;;;;;;;17.35;3.17;;;;;;;;;;4973773;28;20561;-65
2022/10/06 00:14:13;;;;;;;20.65;3.10;;;;;;;;;;4960006;28;22581;-65
2022/10/06 00:16:39;;;;;;;14.50;2.58;;;;;;;;;;4973335;28;20133;-65
2022/10/06 00:19:05;;;;;;;21.48;3.50;;;;;;;;;;4975671;28;20077;-65
2022/10/06 00:21:31;;;;;;;13.40;2.50;;;;;;;;;;4976208;28;20053;-65
2022/10/06 00:23:58;;;;;;;17.55;2.90;;;;;;;;;;4975910;28;20133;-65
2022/10/06 00:26:24;;;;;;;23.92;2.97;;;;;;;;;;4973740;28;20050;-65
2022/10/06 00:28:50;;;;;;;14.35;2.45;;;;;;;;;;4977443;28;20053;-65
2022/10/06 00:31:18;;;;;;;13.38;2.33;;;;;;;;;;4978460;28;20382;-65
2022/10/06 00:33:44;;;;;;;16.92;2.83;;;;;;;;;;4973187;28;20050;-65
2022/10/06 00:36:11;;;;;;;14.52;2.33;;;;;;;;;;4975326;28;20038;-65
2022/10/06 00:38:37;;;;;;;21.95;2.58;;;;;;;;;;4976891;28;20046;-65
2022/10/06 00:41:03;;;;;;;16.00;2.85;;;;;;;;;;4973981;28;20117;-65
2022/10/06 00:43:40;;;;;;;12.82;2.22;;;;;;;;;;4974198;28;20062;-65
2022/10/06 00:46:07;;;;;;;17.83;2.92;;;;;;;;;;4972789;28;20046;-65
2022/10/06 00:48:33;;;;;;;10.82;1.90;;;;;;;;;;4977307;28;20090;-65
2022/10/06 00:51:00;;;;;;;16.83;3.67;;;;;;;;;;4974975;28;20679;-65
2022/10/06 00:53:27;;;;;;;25.27;2.55;;;;;;;;;;4976262;28;20057;-65
2022/10/06 00:55:53;;;;;;;18.50;3.97;;;;;;;;;;4978321;28;20057;-65
2022/10/06 00:58:20;;;;;;;16.90;4.25;;;;;;;;;;4976590;28;20113;-65
2022/10/06 01:00:48;;;;;;;13.57;2.33;;;;;;;;;;4972663;28;20077;-65
2022/10/06 01:03:17;;;;;;;15.85;2.92;;;;;;;;;;4975644;28;20417;-65
2022/10/06 01:05:47;;;;;;;14.75;2.97;;;;;;;;;;4977106;28;20053;-65
2022/10/06 01:08:14;;;;;;;21.65;2.88;;;;;;;;;;4973626;28;20120;-65
2022/10/06 01:10:40;;;;;;;24.38;3.22;;;;;;;;;;4977796;28;20051;-65
2022/10/06 01:13:09;;;;;;;16.38;2.65;;;;;;;;;;4979379;28;20462;-65
2022/10/06 01:15:37;;;;;;;18.52;3.67;;;;;;;;;;4978261;28;20054;-65
2022/10/06 01:18:05;;;;;;;13.20;2.90;;;;;;;;;;4976700;28;20104;-65
2022/10/06 01:20:32;;;;;;;18.45;3.08;;;;;;;;;;4975740;28;20042;-65
2022/10/06 01:23:01;;;;;;;21.23;3.53;;;;;;;;;;4976208;28;20130;-65
2022/10/06 01:25:27;;;;;;;14.30;3.28;;;;;;;;;;4973909;28;20136;-65
2022/10/06 01:27:55;;;;;;;12.77;2.85;;;;;;;;;;4978845;28;20319;-65
2022/10/06 01:30:23;;;;;;;18.48;3.15;;;;;;;;;;4980634;28;20058;-65
2022/10/06 01:32:49;;;;;;;18.15;2.58;;;;;;;;;;4980927;28;20039;-65
2022/10/06 01:35:16;;;;;;;19.27;3.83;;;;;;;;;;4978790;28;20073;-65
2022/10/06 01:37:42;;;;;;;17.60;3.10;;;;;;;;;;4977562;28;20053;-65
2022/10/06 01:40:08;;;;;;;18.70;2.53;;;;;;;;;;4982184;28;20183;-65
2022/10/06 01:42:35;;;;;;;17.17;2.42;;;;;;;;;;4980645;28;20058;-65
2022/10/06 01:45:01;;;;;;;14.45;2.17;;;;;;;;;;4977828;28;20188;-64
2022/10/06 01:47:28;;;;;;;15.18;2.92;;;;;;;;;;4978727;28;20517;-65
2022/10/06 01:49:54;;;;;;;13.32;1.85;;;;;;;;;;4979817;28;20418;-65
2022/10/06 01:52:20;;;;;;;16.35;2.22;;;;;;;;;;4980236;28;20758;-65
2022/10/06 01:54:46;;;;;;;17.92;3.08;;;;;;;;;;4980873;28;20046;-65
2022/10/06 01:57:12;;;;;;;7.70;1.95;;;;;;;;;;4978861;28;20073;-65
2022/10/06 01:59:38;;;;;;;19.67;2.83;;;;;;;;;;4977346;28;20050;-65
2022/10/06 02:02:04;;;;;;;14.48;2.72;;;;;;;;;;4977460;28;20057;-65
2022/10/06 02:04:31;;;;;;;16.67;3.85;;;;;;;;;;4980154;28;20039;-65
2022/10/06 02:06:57;;;;;;;12.02;2.65;;;;;;;;;;4980108;28;20646;-65
2022/10/06 02:09:23;;;;;;;16.42;3.17;;;;;;;;;;4979522;28;20066;-65
2022/10/06 02:11:50;;;;;;;17.30;2.13;;;;;;;;;;4979446;28;20062;-65
2022/10/06 02:14:16;;;;;;;17.00;2.72;;;;;;;;;;4980740;28;20100;-65
2022/10/06 02:16:43;;;;;;;19.42;3.72;;;;;;;;;;4978915;28;20049;-65
2022/10/06 02:19:09;;;;;;;15.43;3.03;;;;;;;;;;4980679;28;20093;-65
2022/10/06 02:21:35;;;;;;;15.35;2.70;;;;;;;;;;4981845;28;20101;-65
2022/10/06 02:24:01;;;;;;;18.35;2.80;;;;;;;;;;4981675;28;20125;-65
2022/10/06 02:26:28;;;;;;;16.65;2.50;;;;;;;;;;4980493;28;20121;-65
2022/10/06 02:28:54;;;;;;;20.05;3.45;;;;;;;;;;4978282;28;20054;-64
2022/10/06 02:31:20;;;;;;;18.15;2.83;;;;;;;;;;4980231;28;20114;-65
2022/10/06 02:33:46;;;;;;;19.25;3.58;;;;;;;;;;4976871;28;20500;-65
2022/10/06 02:36:14;;;;;;;11.88;1.83;;;;;;;;;;4975472;28;20065;-65
2022/10/06 02:38:40;;;;;;;11.68;2.40;;;;;;;;;;4974179;28;20089;-65
2022/10/06 02:41:07;;;;;;;16.00;2.85;;;;;;;;;;4977607;28;20482;-64
2022/10/06 02:43:34;;;;;;;14.30;2.42;;;;;;;;;;4980284;28;20042;-65
2022/10/06 02:46:01;;;;;;;19.45;3.10;;;;;;;;;;4979131;28;20478;-65
2022/10/06 02:48:28;;;;;;;19.08;2.53;;;;;;;;;;4979045;28;20078;-64
2022/10/06 02:50:55;;;;;;;14.75;2.40;;;;;;;;;;4980531;28;20054;-65
2022/10/06 02:53:21;;;;;;;23.15;4.03;;;;;;;;;;4976337;28;20092;-65
2022/10/06 02:55:47;;;;;;;16.38;2.42;;;;;;;;;;4964526;28;20049;-65
2022/10/06 02:58:13;;;;;;;17.30;2.60;;;;;;;;;;4979662;28;20128;-65
2022/10/06 03:00:40;;;;;;;20.55;3.38;;;;;;;;;;4980583;28;20081;-65
2022/10/06 03:03:06;;;;;;;12.90;2.30;;;;;;;;;;4979824;28;20078;-65
2022/10/06 03:05:32;;;;;;;16.67;2.53;;;;;;;;;;4978073;28;20042;-65
2022/10/06 03:07:58;;;;;;;19.17;3.13;;;;;;;;;;4976181;28;20046;-65
2022/10/06 03:10:24;;;;;;;22.50;2.45;;;;;;;;;;4980510;28;20453;-65
2022/10/06 03:12:50;;;;;;;12.15;2.55;;;;;;;;;;4978074;28;20470;-65
2022/10/06 03:15:19;;;;;;;14.52;2.60;;;;;;;;;;4980042;28;20065;-64
2022/10/06 03:17:48;;;;;;;12.48;2.85;;;;;;;;;;4979886;28;20149;-65
2022/10/06 03:20:14;;;;;;;16.45;2.42;;;;;;;;;;4977486;28;20121;-65
2022/10/06 03:22:41;;;;;;;18.83;3.03;;;;;;;;;;4978954;28;20042;-65
2022/10/06 03:25:08;;;;;;;20.73;2.60;;;;;;;;;;4972843;28;20046;-65
2022/10/06 03:27:34;;;;;;;14.90;2.65;;;;;;;;;;4974808;28;20050;-65
2022/10/06 03:30:00;;;;;;;13.40;2.80;;;;;;;;;;4993641;28;20057;-65
2022/10/06 03:32:27;;;;;;;13.77;2.63;;;;;;;;;;4974518;28;20482;-65
2022/10/06 03:34:53;;;;;;;11.90;2.85;;;;;;;;;;4975836;28;20169;-65
2022/10/06 03:37:19;;;;;;;17.50;2.65;;;;;;;;;;4982444;28;20065;-65
2022/10/06 03:39:45;;;;;;;23.98;3.15;;;;;;;;;;4975913;28;20585;-65
2022/10/06 03:42:11;;;;;;;17.85;3.13;;;;;;;;;;4977579;28;20096;-65
2022/10/06 03:44:37;;;;;;;15.60;2.63;;;;;;;;;;4974875;28;20127;-65
2022/10/06 03:47:04;;;;;;;13.98;2.72;;;;;;;;;;4976716;28;20146;-65
2022/10/06 03:49:30;;;;;;;13.07;2.88;;;;;;;;;;4974864;28;20558;-65
2022/10/06 03:51:56;;;;;;;18.45;2.92;;;;;;;;;;4977360;28;20475;-65
2022/10/06 03:54:22;;;;;;;11.48;2.30;;;;;;;;;;4978363;28;20046;-65
2022/10/06 03:56:48;;;;;;;13.77;2.78;;;;;;;;;;4977274;28;20046;-65
2022/10/06 03:59:16;;;;;;;16.42;2.65;;;;;;;;;;4979286;28;20050;-65
2022/10/06 04:01:43;;;;;;;12.82;2.60;;;;;;;;;;4977367;28;20042;-65
2022/10/06 04:04:10;;;;;;;14.93;2.72;;;;;;;;;;4977333;28;20046;-65
2022/10/06 04:06:38;;;;;;;13.55;2.03;;;;;;;;;;4978796;28;20054;-65
2022/10/06 04:09:06;;;;;;;11.75;2.40;;;;;;;;;;4977187;28;20053;-65
2022/10/06 04:11:33;;;;;;;9.23;2.45;;;;;;;;;;4961297;28;20123;-65
2022/10/06 04:14:02;;;;;;;18.83;3.13;;;;;;;;;;4978544;28;20125;-65
2022/10/06 04:16:30;;;;;;;28.23;3.10;;;;;;;;;;4962593;28;20065;-65
2022/10/06 04:18:57;;;;;;;16.17;3.15;;;;;;;;;;4978689;28;20440;-65
2022/10/06 04:21:24;;;;;;;7.72;2.25;;;;;;;;;;4978456;28;20192;-65
2022/10/06 04:23:52;;;;;;;16.73;2.58;;;;;;;;;;4960947;28;20058;-65
2022/10/06 04:26:19;;;;;;;16.35;2.65;;;;;;;;;;4962563;28;20042;-64
2022/10/06 04:28:46;;;;;;;20.38;2.45;;;;;;;;;;4978130;28;20633;-65
2022/10/06 04:31:14;;;;;;;14.27;2.92;;;;;;;;;;4962343;28;20200;-65
2022/10/06 04:33:41;;;;;;;12.23;2.75;;;;;;;;;;4962668;28;20144;-65
2022/10/06 04:36:08;;;;;;;14.82;3.78;;;;;;;;;;4944602;28;20154;-65
2022/10/06 04:38:34;;;;;;;21.75;3.58;;;;;;;;;;4960954;28;20046;-65
2022/10/06 04:41:05;;;;;;;16.45;2.35;;;;;;;;;;4964112;28;20046;-65
2022/10/06 04:43:32;;;;;;;21.05;3.72;;;;;;;;;;4963882;28;20382;-65
2022/10/06 04:45:59;;;;;;;19.70;2.78;;;;;;;;;;4980565;28;20057;-65
2022/10/06 04:48:25;;;;;;;19.27;3.22;;;;;;;;;;4979449;28;20088;-65
2022/10/06 04:50:54;;;;;;;15.30;2.90;;;;;;;;;;4961409;28;20050;-65
2022/10/06 04:53:20;;;;;;;14.77;2.90;;;;;;;;;;4957269;28;20710;-65
2022/10/06 04:55:46;;;;;;;17.00;2.50;;;;;;;;;;4978464;28;20034;-65
2022/10/06 04:58:12;;;;;;;20.75;3.13;;;;;;;;;;4981961;28;20046;-66
2022/10/06 05:00:38;;;;;;;20.48;3.28;;;;;;;;;;4974690;28;20142;-65
2022/10/06 05:03:04;;;;;;;16.65;2.80;;;;;;;;;;4963192;28;20046;-65
2022/10/06 05:05:30;;;;;;;26.33;3.63;;;;;;;;;;4963389;28;20042;-65
2022/10/06 05:07:57;;;;;;;14.80;2.85;;;;;;;;;;4964419;28;20121;-66
2022/10/06 05:10:23;;;;;;;18.30;3.60;;;;;;;;;;4978395;28;20050;-65
2022/10/06 05:12:49;;;;;;;18.98;3.15;;;;;;;;;;4982452;28;20405;-65
2022/10/06 05:15:15;;;;;;;16.60;3.13;;;;;;;;;;4980919;28;20105;-65
2022/10/06 05:17:41;;;;;;;19.88;3.10;;;;;;;;;;4981758;28;20383;-65
2022/10/06 05:20:09;;;;;;;13.70;2.63;;;;;;;;;;4980044;28;20041;-65
2022/10/06 05:22:35;;;;;;;17.40;3.30;;;;;;;;;;4983778;28;20489;-65
2022/10/06 05:25:02;;;;;;;15.75;3.05;;;;;;;;;;4980020;28;21079;-68
2022/10/06 05:27:28;;;;;;;19.45;3.38;;;;;;;;;;4981605;28;20427;-67
2022/10/06 05:29:54;;;;;;;19.80;3.47;;;;;;;;;;4981963;28;20060;-66
2022/10/06 05:32:20;;;;;;;20.40;3.83;;;;;;;;;;4980132;28;20053;-66
2022/10/06 05:34:46;;;;;;;17.52;3.25;;;;;;;;;;4984584;28;20401;-65
2022/10/06 05:37:12;;;;;;;19.95;2.83;;;;;;;;;;4985732;28;20458;-66
2022/10/06 05:39:39;;;;;;;21.38;4.15;;;;;;;;;;4984327;28;20046;-65
2022/10/06 05:42:05;;;;;;;14.93;3.42;;;;;;;;;;4983569;28;20133;-66
2022/10/06 05:44:31;;;;;;;21.52;3.65;;;;;;;;;;4986501;28;20050;-66
2022/10/06 05:46:57;;;;;;;26.05;3.42;;;;;;;;;;4985438;28;20038;-65
2022/10/06 05:49:23;;;;;;;12.95;2.13;;;;;;;;;;4984218;28;20145;-66
2022/10/06 05:51:51;;;;;;;14.77;2.75;;;;;;;;;;4983158;28;20083;-66
2022/10/06 05:54:18;;;;;;;16.40;3.03;;;;;;;;;;4984819;28;20439;-66
2022/10/06 05:56:44;;;;;;;17.45;2.85;;;;;;;;;;4984279;28;20050;-66
2022/10/06 05:59:10;;;;;;;18.75;3.10;;;;;;;;;;4982918;28;20073;-66
2022/10/06 06:01:38;;;;;;;19.42;3.72;;;;;;;;;;4982264;28;20060;-66
2022/10/06 06:04:06;;;;;;;14.90;3.08;;;;;;;;;;4984410;28;20078;-65
2022/10/06 06:06:34;;;;;;;24.60;4.05;;;;;;;;;;4985709;28;20096;-66
2022/10/06 06:09:01;;;;;;;18.40;3.38;;;;;;;;;;4982353;28;20056;-66
2022/10/06 06:11:30;;;;;;;25.73;4.85;;;;;;;;;;4984895;28;20042;-65
2022/10/06 06:13:57;;;;;;;14.50;2.92;;;;;;;;;;4986829;28;20085;-66
2022/10/06 06:16:23;;;;;;;33.10;3.60;;;;;;;;;;4986868;28;20355;-66
2022/10/06 06:18:49;;;;;;;19.65;2.42;;;;;;;;;;4987830;28;20043;-66
2022/10/06 06:21:16;;;;;;;22.65;3.30;;;;;;;;;;4988378;28;20081;-65
2022/10/06 06:23:45;;;;;;;17.75;2.70;;;;;;;;;;4989380;28;20101;-66
2022/10/06 06:26:13;;;;;;;12.65;2.80;;;;;;;;;;4989542;28;20074;-65
2022/10/06 06:28:40;;;;;;;25.50;4.60;;;;;;;;;;4988732;28;20050;-66
2022/10/06 06:31:08;;;;;;;20.95;3.38;;;;;;;;;;4987779;28;20523;-65
2022/10/06 06:33:36;;;;;;;20.23;3.17;;;;;;;;;;4986620;28;20038;-65
2022/10/06 06:36:03;;;;;;;24.08;3.70;;;;;;;;;;4989720;28;20070;-65
2022/10/06 06:38:30;;;;;;;22.33;3.58;;;;;;;;;;4985681;28;20056;-65
2022/10/06 06:40:57;;;;;;;22.48;3.55;;;;;;;;;;4988327;28;20037;-66
2022/10/06 06:43:23;;;;;;;29.67;4.13;;;;;;;;;;5003814;28;20061;-66
2022/10/06 06:45:49;;;;;;;20.90;3.47;;;;;;;;;;4986768;28;20058;-65
2022/10/06 06:48:15;;;;;;;27.95;4.22;;;;;;;;;;4988027;28;20048;-65
2022/10/06 06:50:42;;;;;;;14.88;2.92;;;;;;;;;;4988937;28;20073;-66
2022/10/06 06:53:09;;;;;;;25.50;3.97;;;;;;;;;;4988857;28;20972;-65
2022/10/06 06:55:35;;;;;;;16.80;2.75;;;;;;;;;;4985874;28;20046;-66
2022/10/06 06:58:01;;;;;;;24.65;3.63;;;;;;;;;;4988116;28;20049;-65
2022/10/06 07:00:27;;;;;;;18.23;3.20;;;;;;;;;;4985730;28;20039;-65
2022/10/06 07:02:59;;;;;;;18.95;2.83;;;;;;;;;;4986775;28;20038;-65
2022/10/06 07:05:25;;;;;;;20.02;4.10;;;;;;;;;;4987238;28;20209;-65
2022/10/06 07:07:52;;;;;;;15.07;3.63;;;;;;;;;;4987847;28;20541;-65
2022/10/06 07:10:18;;;;;;;17.20;3.50;;;;;;;;;;4987443;28;20066;-65
2022/10/06 07:12:45;;;;;;;19.50;3.35;;;;;;;;;;4987800;28;20402;-65
2022/10/06 07:26:10;;;;;;;25.98;3.30;;;;;;;;;;4988983;28;20047;-65
2022/10/06 07:28:36;;;;;;;23.90;4.10;;;;;;;;;;4989873;28;20050;-65
2022/10/06 07:31:03;;;;;;;19.58;3.03;;;;;;;;;;4987990;28;20042;-66
2022/10/06 07:33:31;;;;;;;25.58;3.20;;;;;;;;;;4986249;28;20619;-66
2022/10/06 07:35:57;;;;;;;14.18;2.63;;;;;;;;;;4985836;28;20085;-65
2022/10/06 07:38:24;;;;;;;20.40;3.50;;;;;;;;;;4987121;28;20130;-65
2022/10/06 07:40:54;;;;;;;19.33;3.50;;;;;;;;;;4985716;28;20045;-65
2022/10/06 07:43:20;;;;;;;11.07;2.92;;;;;;;;;;4988354;28;20046;-65
2022/10/06 07:45:48;;;;;;;19.45;3.53;;;;;;;;;;4986650;28;20042;-66
2022/10/06 07:48:17;;;;;;;26.50;3.92;;;;;;;;;;4986639;28;20048;-65
2022/10/06 07:50:46;;;;;;;17.35;2.60;;;;;;;;;;4987058;28;20042;-65
2022/10/06 07:53:12;;;;;;;14.57;2.60;;;;;;;;;;4986469;28;20053;-64
2022/10/06 07:55:40;;;;;;;21.52;3.15;;;;;;;;;;4986856;28;20068;-65
2022/10/06 07:58:14;;;;;;;14.70;2.30;;;;;;;;;;4987378;28;20046;-65
2022/10/06 08:00:41;;;;;;;13.88;2.58;;;;;;;;;;4987071;28;20435;-65
2022/10/06 08:03:10;;;;;;;14.07;3.05;;;;;;;;;;4985806;28;20046;-66
2022/10/06 08:05:38;;;;;;;14.93;2.33;;;;;;;;;;4986619;28;20046;-65
2022/10/06 08:08:04;;;;;;;15.05;2.92;;;;;;;;;;4985240;28;20096;-65
2022/10/06 08:10:30;;;;;;;18.15;2.72;;;;;;;;;;4986498;28;20352;-65
2022/10/06 08:12:56;;;;;;;16.90;2.75;;;;;;;;;;4984618;28;20052;-65
2022/10/06 08:15:23;;;;;;;14.75;3.13;;;;;;;;;;4986309;28;20050;-66
2022/10/06 08:17:52;;;;;;;15.73;3.15;;;;;;;;;;4986640;28;20050;-66
2022/10/06 08:20:19;;;;;;;13.95;2.92;;;;;;;;;;4986736;28;20105;-65
2022/10/06 08:22:47;;;;;;;17.05;3.10;;;;;;;;;;4986260;28;20046;-65
2022/10/06 08:25:13;;;;;;;20.58;3.15;;;;;;;;;;4987255;28;20110;-65
2022/10/06 08:27:42;;;;;;;19.67;2.92;;;;;;;;;;4985120;28;20056;-64
2022/10/06 08:30:09;;;;;;;17.25;2.28;;;;;;;;;;4985314;28;20062;-65
2022/10/06 08:32:36;;;;;;;16.52;2.50;;;;;;;;;;4987756;28;20065;-66
2022/10/06 08:35:02;;;;;;;13.13;2.58;;;;;;;;;;4988480;28;20038;-66
2022/10/06 08:37:28;;;;;;;18.48;2.78;;;;;;;;;;4987819;28;20076;-66
2022/10/06 08:39:55;;;;;;;20.98;3.38;;;;;;;;;;4989461;28;20045;-66
2022/10/06 08:42:27;;;;;;;22.75;3.38;;;;;;;;;;4987884;28;20475;-65
2022/10/06 08:44:56;;;;;;;15.93;3.22;;;;;;;;;;4987044;28;20446;-65
2022/10/06 08:47:22;;;;;;;15.95;2.40;;;;;;;;;;4988887;28;20047;-66
2022/10/06 08:49:50;;;;;;;17.40;2.80;;;;;;;;;;4989426;28;20047;-64
2022/10/06 08:52:35;;;;;;;23.85;3.28;;;;;;;;;;4987381;28;20054;-65
2022/10/06 08:55:04;;;;;;;16.90;2.28;;;;;;;;;;4989669;28;20046;-65
2022/10/06 08:57:51;;;;;;;13.63;2.42;;;;;;;;;;4971146;28;20133;-65
2022/10/06 09:00:17;;;;;;;15.73;2.38;;;;;;;;;;4988085;28;20050;-65
2022/10/06 09:02:45;;;;;;;13.07;2.53;;;;;;;;;;4987338;28;20086;-66
2022/10/06 09:05:18;;;;;;;12.25;2.42;;;;;;;;;;4987020;28;20050;-65
2022/10/06 09:07:53;;;;;;;13.75;2.70;;;;;;;;;;4987138;28;20058;-65
2022/10/06 09:10:20;;;;;;;11.35;2.88;;;;;;;;;;4980552;28;20137;-66
2022/10/06 09:12:51;;;;;;;13.93;2.95;;;;;;;;;;4987400;28;20049;-66
2022/10/06 09:15:32;;;;;;;17.58;2.47;;;;;;;;;;4988311;28;20046;-66
2022/10/06 09:18:10;;;;;;;15.65;2.85;;;;;;;;;;4989228;28;20433;-65
2022/10/06 09:20:46;;;;;;;15.18;2.45;;;;;;;;;;4987010;28;20093;-65
2022/10/06 09:23:14;;;;;;;15.75;2.78;;;;;;;;;;4988659;28;20316;-66
2022/10/06 09:25:40;;;;;;;12.25;2.63;;;;;;;;;;4988341;28;20045;-66
2022/10/06 09:28:11;;;;;;;15.57;3.60;;;;;;;;;;4989497;28;20137;-66
2022/10/06 09:30:37;;;;;;;15.60;2.45;;;;;;;;;;4988928;28;20082;-66
2022/10/06 09:33:05;;;;;;;15.60;2.42;;;;;;;;;;4988248;28;20096;-66
2022/10/06 09:35:32;;;;;;;16.27;3.00;;;;;;;;;;4988901;28;20564;-66
2022/10/06 09:38:03;;;;;;;14.10;2.47;;;;;;;;;;4988247;28;20042;-66
2022/10/06 09:40:34;;;;;;;16.95;2.80;;;;;;;;;;4986822;28;20050;-66
2022/10/06 09:43:00;;;;;;;15.05;2.60;;;;;;;;;;4987475;28;20046;-65
2022/10/06 09:45:27;;;;;;;16.10;3.33;;;;;;;;;;4986638;28;20042;-66
2022/10/06 09:47:54;;;;;;;8.93;2.38;;;;;;;;;;4989436;28;20423;-66
2022/10/06 09:50:20;;;;;;;10.52;2.20;;;;;;;;;;4989541;28;20042;-66
2022/10/06 09:52:57;;;;;;;11.45;1.90;;;;;;;;;;4990205;28;20053;-66
2022/10/06 09:55:27;;;;;;;12.43;2.15;;;;;;;;;;4991373;28;20081;-66
2022/10/06 09:57:55;;;;;;;14.82;2.67;;;;;;;;;;4991966;28;20038;-66
2022/10/06 10:00:31;;;;;;;17.83;2.58;;;;;;;;;;4992214;28;20046;-66
2022/10/06 10:02:59;;;;;;;9.25;2.17;;;;;;;;;;4991800;28;20050;-66
2022/10/06 10:05:26;;;;;;;10.15;1.90;;;;;;;;;;4990629;28;20053;-66
2022/10/06 10:08:08;;;;;;;14.40;2.45;;;;;;;;;;4990683;28;20042;-65
2022/10/06 10:10:36;;;;;;;9.75;1.88;;;;;;;;;;4987877;28;20058;-65
2022/10/06 10:13:02;;;;;;;14.43;2.35;;;;;;;;;;4984542;28;20136;-66
2022/10/06 10:15:31;;;;;;;16.00;2.30;;;;;;;;;;4984857;28;20043;-67
2022/10/06 10:18:02;;;;;;;19.52;2.85;;;;;;;;;;4992471;28;20097;-66
2022/10/06 10:20:30;;;;;;;12.73;2.40;;;;;;;;;;4992729;28;20074;-66
2022/10/06 10:23:02;;;;;;;13.77;2.20;;;;;;;;;;4988486;28;20068;-66
2022/10/06 10:25:29;;;;;;;13.98;2.03;;;;;;;;;;4992857;28;20043;-66
2022/10/06 10:28:02;;;;;;;12.40;1.90;;;;;;;;;;4991627;28;20104;-65
2022/10/06 10:30:31;;;;;;;11.68;1.77;;;;;;;;;;4991643;28;20038;-65
2022/10/06 10:33:04;;;;;;;11.30;2.25;;;;;;;;;;4989153;28;20074;-65
2022/10/06 10:35:33;;;;;;;18.10;3.58;;;;;;;;;;4991838;28;20041;-65
2022/10/06 10:38:03;;;;;;;7.00;1.73;;;;;;;;;;4987928;28;20062;-65
2022/10/06 10:40:32;;;;;;;10.00;1.85;;;;;;;;;;4988242;28;20049;-65
2022/10/06 10:42:58;;;;;;;13.50;1.88;;;;;;;;;;4988973;28;20494;-65
2022/10/06 10:45:29;;;;;;;13.85;2.65;;;;;;;;;;4988103;28;20086;-65
2022/10/06 10:47:57;;;;;;;16.08;2.78;;;;;;;;;;4987478;28;20046;-65
2022/10/06 10:50:23;;;;;;;17.80;2.10;;;;;;;;;;4987211;28;20088;-64
2022/10/06 10:52:51;;;;;;;11.43;1.95;;;;;;;;;;4987269;28;20042;-65
2022/10/06 10:55:22;;;;;;;8.57;1.80;;;;;;;;;;4988827;28;20045;-65
2022/10/06 10:57:49;;;;;;;10.75;1.73;;;;;;;;;;4987485;28;20046;-64
2022/10/06 11:00:21;;;;;;;12.43;1.60;;;;;;;;;;4986348;28;20038;-65
2022/10/06 11:02:49;;;;;;;10.98;2.03;;;;;;;;;;4987496;28;20150;-65
2022/10/06 11:05:36;;;;;;;9.60;2.15;;;;;;;;;;4985435;28;20046;-64
2022/10/06 11:08:10;;;;;;;15.93;2.15;;;;;;;;;;4986572;28;20129;-65
2022/10/06 11:10:42;;;;;;;9.10;2.15;;;;;;;;;;4991049;28;20084;-65
2022/10/06 11:13:23;;;;;;;8.10;1.70;;;;;;;;;;4990313;28;20047;-65
2022/10/06 11:16:08;;;;;;;9.88;2.20;;;;;;;;;;4990901;28;20494;-65
2022/10/06 11:18:35;;;;;;;10.10;1.77;;;;;;;;;;4987912;28;20137;-65
2022/10/06 11:21:09;;;;;;;7.78;1.77;;;;;;;;;;4987357;28;20096;-65
2022/10/06 11:23:40;;;;;;;9.32;1.85;;;;;;;;;;4969878;28;20046;-66
2022/10/06 11:26:08;;;;;;;8.00;1.67;;;;;;;;;;4984670;28;20050;-65
2022/10/06 11:28:40;;;;;;;13.05;2.30;;;;;;;;;;4987986;28;20065;-65
2022/10/06 11:31:12;;;;;;;13.55;2.38;;;;;;;;;;4986015;28;20077;-64
2022/10/06 11:33:44;;;;;;;7.95;1.77;;;;;;;;;;4986971;28;20065;-65
2022/10/06 11:36:14;;;;;;;13.00;2.10;;;;;;;;;;4986121;28;20050;-65
2022/10/06 11:38:44;;;;;;;11.15;1.65;;;;;;;;;;4986310;28;20046;-65
2022/10/06 11:41:17;;;;;;;12.85;2.42;;;;;;;;;;4984545;28;20034;-65
2022/10/06 11:43:44;;;;;;;14.88;2.70;;;;;;;;;;4986126;28;20056;-64
2022/10/06 11:46:25;;;;;;;9.80;1.77;;;;;;;;;;4987060;28;20117;-65
2022/10/06 11:48:51;;;;;;;9.40;1.98;;;;;;;;;;4987227;28;20409;-65
2022/10/06 11:51:23;;;;;;;9.80;2.03;;;;;;;;;;4986548;28;20106;-65
2022/10/06 11:53:50;;;;;;;11.15;2.20;;;;;;;;;;4984348;28;20044;-65
2022/10/06 11:56:16;;;;;;;9.57;1.80;;;;;;;;;;4987197;28;20066;-65
2022/10/06 11:58:48;;;;;;;9.02;2.05;;;;;;;;;;4987158;28;20446;-65
2022/10/06 12:01:37;;;;;;;8.52;2.17;;;;;;;;;;4986317;28;20490;-65
2022/10/06 12:04:11;;;;;;;10.55;2.13;;;;;;;;;;4987081;28;20054;-65
2022/10/06 12:06:47;;;;;;;13.63;2.45;;;;;;;;;;4987417;28;20129;-65
2022/10/06 12:09:24;;;;;;;12.70;2.20;;;;;;;;;;4976589;28;20047;-65
2022/10/06 12:11:51;;;;;;;8.20;1.77;;;;;;;;;;4965808;28;20607;-65
2022/10/06 12:14:26;;;;;;;7.07;1.80;;;;;;;;;;4968097;28;20056;-65
2022/10/06 12:16:56;;;;;;;9.45;2.25;;;;;;;;;;4968195;28;20047;-65
2022/10/06 12:19:25;;;;;;;10.57;1.92;;;;;;;;;;4949714;28;20047;-65
2022/10/06 12:21:56;;;;;;;6.65;1.63;;;;;;;;;;4966665;28;20494;-65
2022/10/06 12:24:30;;;;;;;10.30;2.00;;;;;;;;;;4966410;28;20050;-65
2022/10/06 12:26:56;;;;;;;9.48;2.45;;;;;;;;;;4965923;28;20043;-65
2022/10/06 12:29:23;;;;;;;15.02;2.15;;;;;;;;;;4949520;28;20527;-65
2022/10/06 12:32:11;;;;;;;10.98;2.10;;;;;;;;;;4968321;28;20039;-65
2022/10/06 12:34:39;;;;;;;10.13;1.90;;;;;;;;;;4965113;28;20140;-66
2022/10/06 12:37:19;;;;;;;9.20;1.83;;;;;;;;;;4967339;28;20114;-65
2022/10/06 12:39:46;;;;;;;10.63;1.90;;;;;;;;;;4964798;28;20057;-65
2022/10/06 12:42:18;;;;;;;12.82;2.00;;;;;;;;;;4947645;28;20106;-65
2022/10/06 12:44:48;;;;;;;9.90;1.67;;;;;;;;;;4966103;28;20085;-64
2022/10/06 12:47:28;;;;;;;15.48;2.40;;;;;;;;;;4947675;28;20047;-64
2022/10/06 12:49:57;;;;;;;8.98;2.30;;;;;;;;;;4945672;28;20118;-64
2022/10/06 12:52:31;;;;;;;11.02;2.10;;;;;;;;;;4949594;28;20133;-64
2022/10/06 12:55:05;;;;;;;11.30;2.28;;;;;;;;;;4946884;28;20054;-64
2022/10/06 12:57:44;;;;;;;9.82;1.80;;;;;;;;;;4965389;28;20447;-64
2022/10/06 13:00:29;;;;;;;8.15;1.83;;;;;;;;;;4949576;28;20207;-64
2022/10/06 13:02:57;;;;;;;14.93;1.95;;;;;;;;;;4945428;28;20141;-64
2022/10/06 13:05:24;;;;;;;9.23;1.83;;;;;;;;;;4965009;28;20047;-65
2022/10/06 13:07:57;;;;;;;11.25;1.80;;;;;;;;;;4966169;28;20125;-65
2022/10/06 13:10:23;;;;;;;10.77;1.85;;;;;;;;;;4948539;28;20486;-65
2022/10/06 13:12:51;;;;;;;11.82;2.17;;;;;;;;;;4962857;28;20038;-66
2022/10/06 13:15:19;;;;;;;12.25;1.80;;;;;;;;;;4964439;28;21580;-65
2022/10/06 13:17:53;;;;;;;15.18;2.40;;;;;;;;;;4961666;28;20440;-65
2022/10/06 13:20:30;;;;;;;7.32;1.88;;;;;;;;;;4943818;28;20059;-65
2022/10/06 13:23:05;;;;;;;11.90;2.75;;;;;;;;;;4964677;28;20050;-65
2022/10/06 13:25:34;;;;;;;8.68;1.58;;;;;;;;;;4969926;28;20053;-65
2022/10/06 13:28:01;;;;;;;9.82;1.90;;;;;;;;;;4948749;28;20047;-65
2022/10/06 13:30:28;;;;;;;13.35;1.90;;;;;;;;;;4953766;28;20398;-65
2022/10/06 13:32:54;;;;;;;13.50;2.10;;;;;;;;;;4970485;28;20487;-65
2022/10/06 13:35:23;;;;;;;11.13;1.83;;;;;;;;;;4971702;28;20494;-65
2022/10/06 13:37:50;;;;;;;11.32;1.90;;;;;;;;;;4970733;28;20118;-65
2022/10/06 13:40:16;;;;;;;11.57;2.00;;;;;;;;;;4970432;28;20043;-64
2022/10/06 13:42:46;;;;;;;10.30;1.80;;;;;;;;;;4968464;28;20039;-65
2022/10/06 13:45:14;;;;;;;15.88;2.50;;;;;;;;;;4968548;28;20141;-65
2022/10/06 13:47:40;;;;;;;10.55;1.73;;;;;;;;;;4968106;28;20113;-65
2022/10/06 13:50:08;;;;;;;16.30;2.33;;;;;;;;;;4965509;28;20043;-65
2022/10/06 13:52:37;;;;;;;13.25;1.80;;;;;;;;;;4969880;28;20047;-65
2022/10/06 13:55:06;;;;;;;12.93;2.35;;;;;;;;;;4951677;28;20046;-65
2022/10/06 13:57:35;;;;;;;9.38;2.03;;;;;;;;;;4953797;28;20478;-65
2022/10/06 14:00:15;;;;;;;9.43;1.55;;;;;;;;;;4953389;28;20046;-65
2022/10/06 14:02:42;;;;;;;9.68;2.10;;;;;;;;;;4968529;28;20043;-65
2022/10/06 14:05:22;;;;;;;12.82;2.10;;;;;;;;;;4953810;28;20505;-65
2022/10/06 14:07:49;;;;;;;9.13;2.03;;;;;;;;;;4949183;28;20442;-65
2022/10/06 14:10:17;;;;;;;20.60;2.65;;;;;;;;;;4968631;28;20089;-65
2022/10/06 14:12:44;;;;;;;21.60;2.53;;;;;;;;;;4969770;28;20070;-65
2022/10/06 14:15:18;;;;;;;12.82;2.97;;;;;;;;;;4951502;28;20049;-65
2022/10/06 14:17:44;;;;;;;13.15;2.42;;;;;;;;;;4951427;28;20039;-65
2022/10/06 14:20:41;;;;;;;12.38;2.45;;;;;;;;;;4968983;28;20050;-65
2022/10/06 14:23:25;;;;;;;11.43;2.67;;;;;;;;;;4967870;28;20055;-65
2022/10/06 14:25:51;;;;;;;14.98;2.28;;;;;;;;;;4951835;28;20055;-65
2022/10/06 14:28:18;;;;;;;10.85;2.30;;;;;;;;;;4950846;28;20117;-65
2022/10/06 14:30:44;;;;;;;10.05;2.05;;;;;;;;;;4951256;28;20051;-65
2022/10/06 14:33:10;;;;;;;9.05;2.17;;;;;;;;;;4953286;28;20391;-65
2022/10/06 14:35:36;;;;;;;17.45;2.97;;;;;;;;;;4950289;28;20050;-65
2022/10/06 14:38:02;;;;;;;12.55;2.67;;;;;;;;;;4950994;28;20031;-64
2022/10/06 14:40:28;;;;;;;12.77;2.47;;;;;;;;;;4969531;28;20073;-64
2022/10/06 14:42:55;;;;;;;12.77;2.30;;;;;;;;;;4951065;28;20050;-65
2022/10/06 14:45:21;;;;;;;17.73;2.80;;;;;;;;;;4969127;28;20155;-65
2022/10/06 14:47:47;;;;;;;12.30;2.58;;;;;;;;;;4968490;28;20049;-65
2022/10/06 14:50:13;;;;;;;14.20;2.55;;;;;;;;;;4967669;28;20058;-65